sensor_id;sensor_type;location;lat;lon;timestamp;P1;durP1;ratioP1;P2;durP2;ratioP2
36009;SDS011;22076;52.182;5.404;2023-07-20T00:00:51;6.63;;;3.05;;
36009;SDS011;22076;52.182;5.404;2023-07-20T00:03:19;3.28;;;2.33;;
36009;SDS011;22076;52.182;5.404;2023-07-20T00:05:48;2.97;;;2.22;;
36009;SDS011;22076;52.182;5.404;2023-07-20T00:08:16;4.00;;;2.28;;
36009;SDS011;22076;52.182;5.404;2023-07-20T00:10:43;3.40;;;2.08;;
36009;SDS011;22076;52.182;5.404;2023-07-20T00:13:10;3.35;;;2.20;;
36009;SDS011;22076;52.182;5.404;2023-07-20T00:15:38;3.38;;;2.40;;
36009;SDS011;22076;52.182;5.404;2023-07-20T00:18:06;3.25;;;1.98;;
36009;SDS011;22076;52.182;5.404;2023-07-20T00:20:32;2.42;;;1.58;;
36009;SDS011;22076;52.182;5.404;2023-07-20T00:22:59;2.38;;;1.90;;
36009;SDS011;22076;52.182;5.404;2023-07-20T00:25:26;2.30;;;1.60;;
36009;SDS011;22076;52.182;5.404;2023-07-20T00:27:52;3.67;;;1.95;;
36009;SDS011;22076;52.182;5.404;2023-07-20T00:30:19;1.77;;;1.48;;
36009;SDS011;22076;52.182;5.404;2023-07-20T00:32:47;1.55;;;1.20;;
36009;SDS011;22076;52.182;5.404;2023-07-20T00:35:14;2.55;;;1.48;;
36009;SDS011;22076;52.182;5.404;2023-07-20T00:37:40;1.42;;;1.02;;
36009;SDS011;22076;52.182;5.404;2023-07-20T00:40:07;3.35;;;1.00;;
36009;SDS011;22076;52.182;5.404;2023-07-20T00:42:34;1.10;;;0.68;;
36009;SDS011;22076;52.182;5.404;2023-07-20T00:45:00;1.08;;;0.98;;
36009;SDS011;22076;52.182;5.404;2023-07-20T00:47:27;1.15;;;0.70;;
36009;SDS011;22076;52.182;5.404;2023-07-20T00:49:55;1.10;;;0.98;;
36009;SDS011;22076;52.182;5.404;2023-07-20T00:52:22;1.48;;;0.75;;
36009;SDS011;22076;52.182;5.404;2023-07-20T00:54:50;1.00;;;0.77;;
36009;SDS011;22076;52.182;5.404;2023-07-20T00:57:16;1.88;;;1.10;;
36009;SDS011;22076;52.182;5.404;2023-07-20T00:59:43;1.83;;;0.90;;
36009;SDS011;22076;52.182;5.404;2023-07-20T01:02:10;0.70;;;0.70;;
36009;SDS011;22076;52.182;5.404;2023-07-20T01:04:36;2.15;;;1.08;;
36009;SDS011;22076;52.182;5.404;2023-07-20T01:07:07;1.00;;;0.80;;
36009;SDS011;22076;52.182;5.404;2023-07-20T01:09:39;1.10;;;0.82;;
36009;SDS011;22076;52.182;5.404;2023-07-20T01:12:10;1.23;;;0.70;;
36009;SDS011;22076;52.182;5.404;2023-07-20T01:14:39;3.17;;;0.98;;
36009;SDS011;22076;52.182;5.404;2023-07-20T01:17:05;1.98;;;0.98;;
36009;SDS011;22076;52.182;5.404;2023-07-20T01:19:32;2.25;;;1.20;;
36009;SDS011;22076;52.182;5.404;2023-07-20T01:22:00;1.90;;;0.93;;
36009;SDS011;22076;52.182;5.404;2023-07-20T01:24:44;1.75;;;1.10;;
36009;SDS011;22076;52.182;5.404;2023-07-20T01:27:25;1.97;;;1.40;;
36009;SDS011;22076;52.182;5.404;2023-07-20T01:30:25;1.42;;;1.10;;
36009;SDS011;22076;52.182;5.404;2023-07-20T01:33:10;1.10;;;1.00;;
36009;SDS011;22076;52.182;5.404;2023-07-20T01:35:38;1.10;;;0.80;;
36009;SDS011;22076;52.182;5.404;2023-07-20T01:38:04;1.30;;;1.00;;
36009;SDS011;22076;52.182;5.404;2023-07-20T01:40:32;1.13;;;0.90;;
36009;SDS011;22076;52.182;5.404;2023-07-20T01:42:59;1.98;;;1.10;;
36009;SDS011;22076;52.182;5.404;2023-07-20T01:45:26;1.58;;;1.20;;
36009;SDS011;22076;52.182;5.404;2023-07-20T01:47:52;2.35;;;1.45;;
36009;SDS011;22076;52.182;5.404;2023-07-20T01:50:20;3.95;;;1.40;;
36009;SDS011;22076;52.182;5.404;2023-07-20T01:52:47;3.08;;;1.48;;
36009;SDS011;22076;52.182;5.404;2023-07-20T01:55:14;1.40;;;1.13;;
36009;SDS011;22076;52.182;5.404;2023-07-20T01:57:40;1.63;;;1.30;;
36009;SDS011;22076;52.182;5.404;2023-07-20T02:00:07;1.58;;;1.33;;
36009;SDS011;22076;52.182;5.404;2023-07-20T02:02:34;2.75;;;1.30;;
36009;SDS011;22076;52.182;5.404;2023-07-20T02:05:01;1.48;;;1.30;;
36009;SDS011;22076;52.182;5.404;2023-07-20T02:07:29;2.90;;;1.35;;
36009;SDS011;22076;52.182;5.404;2023-07-20T02:09:56;1.63;;;1.30;;
36009;SDS011;22076;52.182;5.404;2023-07-20T02:12:22;1.40;;;1.27;;
36009;SDS011;22076;52.182;5.404;2023-07-20T02:14:49;4.43;;;1.75;;
36009;SDS011;22076;52.182;5.404;2023-07-20T02:17:16;2.38;;;1.50;;
36009;SDS011;22076;52.182;5.404;2023-07-20T02:19:42;2.45;;;1.58;;
36009;SDS011;22076;52.182;5.404;2023-07-20T02:22:09;2.25;;;1.38;;
36009;SDS011;22076;52.182;5.404;2023-07-20T02:24:37;3.83;;;1.90;;
36009;SDS011;22076;52.182;5.404;2023-07-20T02:27:04;1.73;;;1.20;;
36009;SDS011;22076;52.182;5.404;2023-07-20T02:29:32;2.33;;;2.03;;
36009;SDS011;22076;52.182;5.404;2023-07-20T02:31:59;2.45;;;1.60;;
36009;SDS011;22076;52.182;5.404;2023-07-20T02:34:25;2.55;;;2.00;;
36009;SDS011;22076;52.182;5.404;2023-07-20T02:36:52;3.03;;;1.75;;
36009;SDS011;22076;52.182;5.404;2023-07-20T02:39:21;1.80;;;1.50;;
36009;SDS011;22076;52.182;5.404;2023-07-20T02:41:49;2.90;;;1.83;;
36009;SDS011;22076;52.182;5.404;2023-07-20T02:44:15;1.77;;;1.48;;
36009;SDS011;22076;52.182;5.404;2023-07-20T02:46:42;2.10;;;1.50;;
36009;SDS011;22076;52.182;5.404;2023-07-20T02:49:08;2.03;;;1.75;;
36009;SDS011;22076;52.182;5.404;2023-07-20T02:51:35;4.00;;;1.70;;
36009;SDS011;22076;52.182;5.404;2023-07-20T02:54:02;2.00;;;1.60;;
36009;SDS011;22076;52.182;5.404;2023-07-20T02:56:28;2.65;;;1.88;;
36009;SDS011;22076;52.182;5.404;2023-07-20T02:58:56;4.25;;;2.20;;
36009;SDS011;22076;52.182;5.404;2023-07-20T03:01:23;2.92;;;1.40;;
36009;SDS011;22076;52.182;5.404;2023-07-20T03:03:52;1.83;;;1.30;;
36009;SDS011;22076;52.182;5.404;2023-07-20T03:06:19;2.15;;;1.77;;
36009;SDS011;22076;52.182;5.404;2023-07-20T03:08:45;2.38;;;1.70;;
36009;SDS011;22076;52.182;5.404;2023-07-20T03:11:13;2.28;;;1.52;;
36009;SDS011;22076;52.182;5.404;2023-07-20T03:13:40;2.88;;;1.80;;
36009;SDS011;22076;52.182;5.404;2023-07-20T03:16:08;2.25;;;1.40;;
36009;SDS011;22076;52.182;5.404;2023-07-20T03:18:36;3.08;;;1.73;;
36009;SDS011;22076;52.182;5.404;2023-07-20T03:21:03;3.22;;;1.60;;
36009;SDS011;22076;52.182;5.404;2023-07-20T03:23:29;2.10;;;1.60;;
36009;SDS011;22076;52.182;5.404;2023-07-20T03:25:56;2.42;;;1.70;;
36009;SDS011;22076;52.182;5.404;2023-07-20T03:28:23;2.00;;;1.65;;
36009;SDS011;22076;52.182;5.404;2023-07-20T03:30:52;1.95;;;1.63;;
36009;SDS011;22076;52.182;5.404;2023-07-20T03:33:21;2.20;;;1.70;;
36009;SDS011;22076;52.182;5.404;2023-07-20T03:35:47;5.90;;;2.30;;
36009;SDS011;22076;52.182;5.404;2023-07-20T03:38:14;2.85;;;1.63;;
36009;SDS011;22076;52.182;5.404;2023-07-20T03:40:48;2.10;;;1.58;;
36009;SDS011;22076;52.182;5.404;2023-07-20T03:43:15;3.20;;;1.63;;
36009;SDS011;22076;52.182;5.404;2023-07-20T03:45:42;2.50;;;2.13;;
36009;SDS011;22076;52.182;5.404;2023-07-20T03:48:08;3.22;;;2.17;;
36009;SDS011;22076;52.182;5.404;2023-07-20T03:50:37;2.03;;;1.77;;
36009;SDS011;22076;52.182;5.404;2023-07-20T03:53:03;3.10;;;1.90;;
36009;SDS011;22076;52.182;5.404;2023-07-20T03:55:30;2.50;;;1.88;;
36009;SDS011;22076;52.182;5.404;2023-07-20T03:57:57;2.55;;;1.80;;
36009;SDS011;22076;52.182;5.404;2023-07-20T04:00:23;2.08;;;1.75;;
36009;SDS011;22076;52.182;5.404;2023-07-20T04:02:50;2.30;;;1.55;;
36009;SDS011;22076;52.182;5.404;2023-07-20T04:05:16;3.28;;;1.98;;
36009;SDS011;22076;52.182;5.404;2023-07-20T04:07:45;2.08;;;1.73;;
36009;SDS011;22076;52.182;5.404;2023-07-20T04:10:12;1.98;;;1.45;;
36009;SDS011;22076;52.182;5.404;2023-07-20T04:12:38;4.30;;;2.47;;
36009;SDS011;22076;52.182;5.404;2023-07-20T04:15:05;1.63;;;1.50;;
36009;SDS011;22076;52.182;5.404;2023-07-20T04:17:32;2.70;;;1.90;;
36009;SDS011;22076;52.182;5.404;2023-07-20T04:19:59;4.22;;;2.45;;
36009;SDS011;22076;52.182;5.404;2023-07-20T04:22:26;2.35;;;1.75;;
36009;SDS011;22076;52.182;5.404;2023-07-20T04:24:54;5.10;;;2.53;;
36009;SDS011;22076;52.182;5.404;2023-07-20T04:27:21;4.60;;;2.00;;
36009;SDS011;22076;52.182;5.404;2023-07-20T04:29:47;4.35;;;2.45;;
36009;SDS011;22076;52.182;5.404;2023-07-20T04:32:14;3.05;;;2.33;;
36009;SDS011;22076;52.182;5.404;2023-07-20T04:34:41;3.40;;;2.03;;
36009;SDS011;22076;52.182;5.404;2023-07-20T04:37:08;5.28;;;2.22;;
36009;SDS011;22076;52.182;5.404;2023-07-20T04:39:34;2.78;;;2.17;;
36009;SDS011;22076;52.182;5.404;2023-07-20T04:42:02;2.92;;;2.13;;
36009;SDS011;22076;52.182;5.404;2023-07-20T04:44:29;2.80;;;1.95;;
36009;SDS011;22076;52.182;5.404;2023-07-20T04:46:56;4.95;;;2.15;;
36009;SDS011;22076;52.182;5.404;2023-07-20T04:49:22;3.90;;;2.28;;
36009;SDS011;22076;52.182;5.404;2023-07-20T04:51:49;2.90;;;2.30;;
36009;SDS011;22076;52.182;5.404;2023-07-20T04:54:16;2.72;;;2.45;;
36009;SDS011;22076;52.182;5.404;2023-07-20T04:56:43;3.13;;;2.30;;
36009;SDS011;22076;52.182;5.404;2023-07-20T04:59:11;2.70;;;2.20;;
36009;SDS011;22076;52.182;5.404;2023-07-20T05:01:38;3.65;;;2.35;;
36009;SDS011;22076;52.182;5.404;2023-07-20T05:04:05;3.53;;;2.40;;
36009;SDS011;22076;52.182;5.404;2023-07-20T05:06:31;3.42;;;2.30;;
36009;SDS011;22076;52.182;5.404;2023-07-20T05:08:59;3.45;;;1.90;;
36009;SDS011;22076;52.182;5.404;2023-07-20T05:11:25;5.35;;;2.92;;
36009;SDS011;22076;52.182;5.404;2023-07-20T05:13:53;4.38;;;2.65;;
36009;SDS011;22076;52.182;5.404;2023-07-20T05:16:21;4.45;;;2.72;;
36009;SDS011;22076;52.182;5.404;2023-07-20T05:18:48;3.55;;;2.20;;
36009;SDS011;22076;52.182;5.404;2023-07-20T05:21:14;4.78;;;2.75;;
36009;SDS011;22076;52.182;5.404;2023-07-20T05:23:41;4.90;;;3.13;;
36009;SDS011;22076;52.182;5.404;2023-07-20T05:26:07;3.55;;;2.78;;
36009;SDS011;22076;52.182;5.404;2023-07-20T05:28:34;4.53;;;2.03;;
36009;SDS011;22076;52.182;5.404;2023-07-20T05:31:02;5.72;;;2.63;;
36009;SDS011;22076;52.182;5.404;2023-07-20T05:33:30;5.65;;;2.60;;
36009;SDS011;22076;52.182;5.404;2023-07-20T05:35:57;7.95;;;2.78;;
36009;SDS011;22076;52.182;5.404;2023-07-20T05:38:23;5.22;;;2.58;;
36009;SDS011;22076;52.182;5.404;2023-07-20T05:40:50;2.95;;;2.25;;
36009;SDS011;22076;52.182;5.404;2023-07-20T05:43:16;3.72;;;2.33;;
36009;SDS011;22076;52.182;5.404;2023-07-20T05:45:43;4.30;;;2.30;;
36009;SDS011;22076;52.182;5.404;2023-07-20T05:48:10;6.15;;;2.65;;
36009;SDS011;22076;52.182;5.404;2023-07-20T05:50:41;4.70;;;3.08;;
36009;SDS011;22076;52.182;5.404;2023-07-20T05:53:08;3.30;;;2.15;;
36009;SDS011;22076;52.182;5.404;2023-07-20T05:55:35;2.22;;;1.90;;
36009;SDS011;22076;52.182;5.404;2023-07-20T05:58:01;3.80;;;2.00;;
36009;SDS011;22076;52.182;5.404;2023-07-20T06:00:29;2.50;;;2.10;;
36009;SDS011;22076;52.182;5.404;2023-07-20T06:02:55;4.00;;;2.60;;
36009;SDS011;22076;52.182;5.404;2023-07-20T06:05:22;5.75;;;2.85;;
36009;SDS011;22076;52.182;5.404;2023-07-20T06:07:51;4.57;;;3.08;;
36009;SDS011;22076;52.182;5.404;2023-07-20T06:10:19;4.07;;;2.00;;
36009;SDS011;22076;52.182;5.404;2023-07-20T06:12:47;4.05;;;2.08;;
36009;SDS011;22076;52.182;5.404;2023-07-20T06:15:26;4.85;;;2.22;;
36009;SDS011;22076;52.182;5.404;2023-07-20T06:17:54;2.97;;;1.95;;
36009;SDS011;22076;52.182;5.404;2023-07-20T06:20:22;3.28;;;2.05;;
36009;SDS011;22076;52.182;5.404;2023-07-20T06:22:53;4.65;;;2.00;;
36009;SDS011;22076;52.182;5.404;2023-07-20T06:25:19;3.47;;;1.98;;
36009;SDS011;22076;52.182;5.404;2023-07-20T06:27:48;2.50;;;1.83;;
36009;SDS011;22076;52.182;5.404;2023-07-20T06:30:16;2.33;;;1.30;;
36009;SDS011;22076;52.182;5.404;2023-07-20T06:32:42;1.67;;;1.20;;
36009;SDS011;22076;52.182;5.404;2023-07-20T06:35:09;1.45;;;0.98;;
36009;SDS011;22076;52.182;5.404;2023-07-20T06:37:36;2.30;;;1.20;;
36009;SDS011;22076;52.182;5.404;2023-07-20T06:40:04;0.95;;;0.70;;
36009;SDS011;22076;52.182;5.404;2023-07-20T06:42:34;3.35;;;0.95;;
36009;SDS011;22076;52.182;5.404;2023-07-20T06:45:00;2.10;;;1.00;;
36009;SDS011;22076;52.182;5.404;2023-07-20T06:47:27;2.13;;;1.10;;
36009;SDS011;22076;52.182;5.404;2023-07-20T06:49:53;3.03;;;1.83;;
36009;SDS011;22076;52.182;5.404;2023-07-20T06:52:21;1.85;;;1.35;;
36009;SDS011;22076;52.182;5.404;2023-07-20T06:54:48;1.10;;;0.80;;
36009;SDS011;22076;52.182;5.404;2023-07-20T06:57:16;1.00;;;0.73;;
36009;SDS011;22076;52.182;5.404;2023-07-20T06:59:42;2.25;;;1.60;;
36009;SDS011;22076;52.182;5.404;2023-07-20T07:02:09;1.33;;;0.98;;
36009;SDS011;22076;52.182;5.404;2023-07-20T07:04:36;2.15;;;0.90;;
36009;SDS011;22076;52.182;5.404;2023-07-20T07:07:02;1.58;;;1.00;;
36009;SDS011;22076;52.182;5.404;2023-07-20T07:09:29;2.28;;;0.98;;
36009;SDS011;22076;52.182;5.404;2023-07-20T07:11:56;3.05;;;1.17;;
36009;SDS011;22076;52.182;5.404;2023-07-20T07:14:24;1.23;;;0.77;;
36009;SDS011;22076;52.182;5.404;2023-07-20T07:16:50;2.55;;;0.88;;
36009;SDS011;22076;52.182;5.404;2023-07-20T07:19:17;0.85;;;0.68;;
36009;SDS011;22076;52.182;5.404;2023-07-20T07:21:44;1.02;;;0.90;;
36009;SDS011;22076;52.182;5.404;2023-07-20T07:24:11;1.42;;;0.73;;
36009;SDS011;22076;52.182;5.404;2023-07-20T07:26:37;4.78;;;1.10;;
36009;SDS011;22076;52.182;5.404;2023-07-20T07:29:05;0.93;;;0.73;;
36009;SDS011;22076;52.182;5.404;2023-07-20T07:31:34;3.55;;;1.15;;
36009;SDS011;22076;52.182;5.404;2023-07-20T07:34:02;1.02;;;0.80;;
36009;SDS011;22076;52.182;5.404;2023-07-20T07:36:29;3.15;;;1.15;;
36009;SDS011;22076;52.182;5.404;2023-07-20T07:38:56;1.85;;;0.80;;
36009;SDS011;22076;52.182;5.404;2023-07-20T07:41:23;2.20;;;0.95;;
36009;SDS011;22076;52.182;5.404;2023-07-20T07:43:51;0.63;;;0.60;;
36009;SDS011;22076;52.182;5.404;2023-07-20T07:46:18;0.70;;;0.60;;
36009;SDS011;22076;52.182;5.404;2023-07-20T07:48:46;1.17;;;0.70;;
36009;SDS011;22076;52.182;5.404;2023-07-20T07:51:13;1.00;;;0.65;;
36009;SDS011;22076;52.182;5.404;2023-07-20T07:53:40;0.98;;;0.77;;
36009;SDS011;22076;52.182;5.404;2023-07-20T07:56:07;4.30;;;0.80;;
36009;SDS011;22076;52.182;5.404;2023-07-20T07:58:34;1.67;;;0.90;;
36009;SDS011;22076;52.182;5.404;2023-07-20T08:01:01;1.20;;;0.73;;
36009;SDS011;22076;52.182;5.404;2023-07-20T08:03:27;1.75;;;0.57;;
36009;SDS011;22076;52.182;5.404;2023-07-20T08:06:02;1.95;;;0.60;;
36009;SDS011;22076;52.182;5.404;2023-07-20T08:08:30;0.73;;;0.63;;
36009;SDS011;22076;52.182;5.404;2023-07-20T08:10:57;1.67;;;0.75;;
36009;SDS011;22076;52.182;5.404;2023-07-20T08:13:24;2.60;;;0.65;;
36009;SDS011;22076;52.182;5.404;2023-07-20T08:15:51;1.10;;;0.50;;
36009;SDS011;22076;52.182;5.404;2023-07-20T08:18:19;3.63;;;0.82;;
36009;SDS011;22076;52.182;5.404;2023-07-20T08:20:46;0.70;;;0.60;;
36009;SDS011;22076;52.182;5.404;2023-07-20T08:23:15;0.70;;;0.60;;
36009;SDS011;22076;52.182;5.404;2023-07-20T08:25:42;1.20;;;0.70;;
36009;SDS011;22076;52.182;5.404;2023-07-20T08:28:10;0.95;;;0.60;;
36009;SDS011;22076;52.182;5.404;2023-07-20T08:30:40;0.60;;;0.45;;
36009;SDS011;22076;52.182;5.404;2023-07-20T08:33:07;1.15;;;0.70;;
36009;SDS011;22076;52.182;5.404;2023-07-20T08:35:35;1.77;;;0.93;;
36009;SDS011;22076;52.182;5.404;2023-07-20T08:38:01;2.00;;;0.60;;
36009;SDS011;22076;52.182;5.404;2023-07-20T08:40:31;0.80;;;0.60;;
36009;SDS011;22076;52.182;5.404;2023-07-20T08:42:58;0.73;;;0.45;;
36009;SDS011;22076;52.182;5.404;2023-07-20T08:45:25;1.55;;;0.73;;
36009;SDS011;22076;52.182;5.404;2023-07-20T08:47:54;1.27;;;0.70;;
36009;SDS011;22076;52.182;5.404;2023-07-20T08:50:22;1.55;;;0.60;;
36009;SDS011;22076;52.182;5.404;2023-07-20T08:52:49;1.17;;;0.55;;
36009;SDS011;22076;52.182;5.404;2023-07-20T08:55:17;1.23;;;0.70;;
36009;SDS011;22076;52.182;5.404;2023-07-20T08:57:46;1.30;;;0.38;;
36009;SDS011;22076;52.182;5.404;2023-07-20T09:00:13;0.77;;;0.60;;
36009;SDS011;22076;52.182;5.404;2023-07-20T09:02:40;0.80;;;0.63;;
36009;SDS011;22076;52.182;5.404;2023-07-20T09:05:08;0.60;;;0.45;;
36009;SDS011;22076;52.182;5.404;2023-07-20T09:07:35;1.80;;;0.80;;
36009;SDS011;22076;52.182;5.404;2023-07-20T09:10:02;1.20;;;0.50;;
36009;SDS011;22076;52.182;5.404;2023-07-20T09:12:31;3.45;;;0.65;;
36009;SDS011;22076;52.182;5.404;2023-07-20T09:15:00;0.65;;;0.57;;
36009;SDS011;22076;52.182;5.404;2023-07-20T09:17:27;2.33;;;0.70;;
36009;SDS011;22076;52.182;5.404;2023-07-20T09:19:53;1.73;;;0.77;;
36009;SDS011;22076;52.182;5.404;2023-07-20T09:22:20;1.08;;;0.52;;
36009;SDS011;22076;52.182;5.404;2023-07-20T09:24:46;1.55;;;0.50;;
36009;SDS011;22076;52.182;5.404;2023-07-20T09:27:13;2.72;;;0.70;;
36009;SDS011;22076;52.182;5.404;2023-07-20T09:29:49;1.15;;;0.65;;
36009;SDS011;22076;52.182;5.404;2023-07-20T09:32:19;1.75;;;0.50;;
36009;SDS011;22076;52.182;5.404;2023-07-20T09:34:46;0.63;;;0.52;;
36009;SDS011;22076;52.182;5.404;2023-07-20T09:37:12;1.05;;;0.77;;
36009;SDS011;22076;52.182;5.404;2023-07-20T09:39:42;1.30;;;0.60;;
36009;SDS011;22076;52.182;5.404;2023-07-20T09:42:10;1.10;;;0.68;;
36009;SDS011;22076;52.182;5.404;2023-07-20T09:44:37;1.73;;;0.60;;
36009;SDS011;22076;52.182;5.404;2023-07-20T09:47:04;2.35;;;0.73;;
36009;SDS011;22076;52.182;5.404;2023-07-20T09:49:33;0.45;;;0.45;;
36009;SDS011;22076;52.182;5.404;2023-07-20T09:52:05;1.35;;;0.70;;
36009;SDS011;22076;52.182;5.404;2023-07-20T09:54:32;1.00;;;0.60;;
36009;SDS011;22076;52.182;5.404;2023-07-20T09:56:59;0.57;;;0.47;;
36009;SDS011;22076;52.182;5.404;2023-07-20T09:59:27;0.55;;;0.50;;
36009;SDS011;22076;52.182;5.404;2023-07-20T10:01:54;2.17;;;0.60;;
36009;SDS011;22076;52.182;5.404;2023-07-20T10:04:25;1.95;;;0.73;;
36009;SDS011;22076;52.182;5.404;2023-07-20T10:06:54;1.20;;;0.50;;
36009;SDS011;22076;52.182;5.404;2023-07-20T10:09:22;1.50;;;0.65;;
36009;SDS011;22076;52.182;5.404;2023-07-20T10:11:50;1.08;;;0.60;;
36009;SDS011;22076;52.182;5.404;2023-07-20T10:14:19;0.70;;;0.52;;
36009;SDS011;22076;52.182;5.404;2023-07-20T10:16:46;1.60;;;0.93;;
36009;SDS011;22076;52.182;5.404;2023-07-20T10:19:21;1.30;;;0.50;;
36009;SDS011;22076;52.182;5.404;2023-07-20T10:21:51;1.17;;;0.60;;
36009;SDS011;22076;52.182;5.404;2023-07-20T10:24:28;0.50;;;0.50;;
36009;SDS011;22076;52.182;5.404;2023-07-20T10:26:55;1.77;;;0.60;;
36009;SDS011;22076;52.182;5.404;2023-07-20T10:29:23;1.05;;;0.63;;
36009;SDS011;22076;52.182;5.404;2023-07-20T10:31:52;1.70;;;0.70;;
36009;SDS011;22076;52.182;5.404;2023-07-20T10:34:19;2.40;;;0.77;;
36009;SDS011;22076;52.182;5.404;2023-07-20T10:36:46;1.27;;;0.73;;
36009;SDS011;22076;52.182;5.404;2023-07-20T10:39:28;0.90;;;0.57;;
36009;SDS011;22076;52.182;5.404;2023-07-20T10:42:00;0.98;;;0.80;;
36009;SDS011;22076;52.182;5.404;2023-07-20T10:44:28;0.65;;;0.55;;
36009;SDS011;22076;52.182;5.404;2023-07-20T10:46:58;0.73;;;0.47;;
36009;SDS011;22076;52.182;5.404;2023-07-20T10:49:26;2.10;;;0.68;;
36009;SDS011;22076;52.182;5.404;2023-07-20T10:51:58;0.57;;;0.50;;
36009;SDS011;22076;52.182;5.404;2023-07-20T10:54:36;0.60;;;0.50;;
36009;SDS011;22076;52.182;5.404;2023-07-20T10:57:24;0.88;;;0.40;;
36009;SDS011;22076;52.182;5.404;2023-07-20T10:59:51;0.60;;;0.50;;
36009;SDS011;22076;52.182;5.404;2023-07-20T11:02:19;1.15;;;0.60;;
36009;SDS011;22076;52.182;5.404;2023-07-20T11:04:46;0.77;;;0.60;;
36009;SDS011;22076;52.182;5.404;2023-07-20T11:07:18;1.40;;;0.63;;
36009;SDS011;22076;52.182;5.404;2023-07-20T11:10:13;0.82;;;0.52;;
36009;SDS011;22076;52.182;5.404;2023-07-20T11:12:41;0.40;;;0.40;;
36009;SDS011;22076;52.182;5.404;2023-07-20T11:15:08;0.75;;;0.50;;
36009;SDS011;22076;52.182;5.404;2023-07-20T11:17:37;0.77;;;0.57;;
36009;SDS011;22076;52.182;5.404;2023-07-20T11:20:04;1.70;;;0.50;;
36009;SDS011;22076;52.182;5.404;2023-07-20T11:22:31;0.82;;;0.40;;
36009;SDS011;22076;52.182;5.404;2023-07-20T11:24:58;1.98;;;0.50;;
36009;SDS011;22076;52.182;5.404;2023-07-20T11:27:26;2.28;;;0.50;;
36009;SDS011;22076;52.182;5.404;2023-07-20T11:29:53;1.05;;;0.50;;
36009;SDS011;22076;52.182;5.404;2023-07-20T11:32:23;2.45;;;0.73;;
36009;SDS011;22076;52.182;5.404;2023-07-20T11:34:51;1.17;;;0.60;;
36009;SDS011;22076;52.182;5.404;2023-07-20T11:37:17;0.77;;;0.65;;
36009;SDS011;22076;52.182;5.404;2023-07-20T11:39:44;0.90;;;0.47;;
36009;SDS011;22076;52.182;5.404;2023-07-20T11:42:11;4.05;;;0.63;;
36009;SDS011;22076;52.182;5.404;2023-07-20T11:44:39;1.60;;;0.70;;
36009;SDS011;22076;52.182;5.404;2023-07-20T11:47:07;1.23;;;0.50;;
36009;SDS011;22076;52.182;5.404;2023-07-20T11:49:34;0.60;;;0.50;;
36009;SDS011;22076;52.182;5.404;2023-07-20T11:52:03;1.08;;;0.50;;
36009;SDS011;22076;52.182;5.404;2023-07-20T11:54:30;0.30;;;0.30;;
36009;SDS011;22076;52.182;5.404;2023-07-20T11:57:00;0.52;;;0.40;;
36009;SDS011;22076;52.182;5.404;2023-07-20T11:59:28;1.05;;;0.50;;
36009;SDS011;22076;52.182;5.404;2023-07-20T12:01:57;0.40;;;0.25;;
36009;SDS011;22076;52.182;5.404;2023-07-20T12:04:25;0.90;;;0.57;;
36009;SDS011;22076;52.182;5.404;2023-07-20T12:06:53;0.43;;;0.40;;
36009;SDS011;22076;52.182;5.404;2023-07-20T12:09:21;0.75;;;0.40;;
36009;SDS011;22076;52.182;5.404;2023-07-20T12:11:49;0.40;;;0.38;;
36009;SDS011;22076;52.182;5.404;2023-07-20T12:14:17;0.95;;;0.50;;
36009;SDS011;22076;52.182;5.404;2023-07-20T12:16:51;0.60;;;0.52;;
36009;SDS011;22076;52.182;5.404;2023-07-20T12:19:24;0.43;;;0.40;;
36009;SDS011;22076;52.182;5.404;2023-07-20T12:24:22;1.48;;;0.47;;
36009;SDS011;22076;52.182;5.404;2023-07-20T12:26:49;0.90;;;0.55;;
36009;SDS011;22076;52.182;5.404;2023-07-20T12:29:22;0.82;;;0.40;;
36009;SDS011;22076;52.182;5.404;2023-07-20T12:31:49;2.47;;;0.60;;
36009;SDS011;22076;52.182;5.404;2023-07-20T12:34:15;0.60;;;0.50;;
36009;SDS011;22076;52.182;5.404;2023-07-20T12:36:43;0.57;;;0.40;;
36009;SDS011;22076;52.182;5.404;2023-07-20T12:39:10;0.43;;;0.30;;
36009;SDS011;22076;52.182;5.404;2023-07-20T12:41:37;0.47;;;0.40;;
36009;SDS011;22076;52.182;5.404;2023-07-20T12:44:03;1.85;;;0.70;;
36009;SDS011;22076;52.182;5.404;2023-07-20T12:46:30;1.75;;;0.40;;
36009;SDS011;22076;52.182;5.404;2023-07-20T12:49:00;1.27;;;0.63;;
36009;SDS011;22076;52.182;5.404;2023-07-20T12:51:26;1.27;;;0.40;;
36009;SDS011;22076;52.182;5.404;2023-07-20T12:53:54;2.28;;;0.60;;
36009;SDS011;22076;52.182;5.404;2023-07-20T12:56:21;1.95;;;0.50;;
36009;SDS011;22076;52.182;5.404;2023-07-20T12:58:48;1.17;;;0.65;;
36009;SDS011;22076;52.182;5.404;2023-07-20T13:01:22;0.68;;;0.45;;
36009;SDS011;22076;52.182;5.404;2023-07-20T13:03:49;0.50;;;0.40;;
36009;SDS011;22076;52.182;5.404;2023-07-20T13:06:16;1.20;;;0.50;;
36009;SDS011;22076;52.182;5.404;2023-07-20T13:08:42;0.57;;;0.50;;
36009;SDS011;22076;52.182;5.404;2023-07-20T13:11:10;2.15;;;0.60;;
36009;SDS011;22076;52.182;5.404;2023-07-20T13:13:37;0.95;;;0.45;;
36009;SDS011;22076;52.182;5.404;2023-07-20T13:16:05;0.60;;;0.47;;
36009;SDS011;22076;52.182;5.404;2023-07-20T13:18:32;3.20;;;0.57;;
36009;SDS011;22076;52.182;5.404;2023-07-20T13:20:59;1.98;;;0.70;;
36009;SDS011;22076;52.182;5.404;2023-07-20T13:23:25;1.00;;;0.50;;
36009;SDS011;22076;52.182;5.404;2023-07-20T13:25:52;3.22;;;0.70;;
36009;SDS011;22076;52.182;5.404;2023-07-20T13:28:21;1.65;;;0.68;;
36009;SDS011;22076;52.182;5.404;2023-07-20T13:30:48;0.90;;;0.60;;
36009;SDS011;22076;52.182;5.404;2023-07-20T13:33:14;1.27;;;0.60;;
36009;SDS011;22076;52.182;5.404;2023-07-20T13:35:41;1.20;;;0.73;;
36009;SDS011;22076;52.182;5.404;2023-07-20T13:38:07;1.85;;;0.88;;
36009;SDS011;22076;52.182;5.404;2023-07-20T13:40:34;0.60;;;0.60;;
36009;SDS011;22076;52.182;5.404;2023-07-20T13:43:02;2.35;;;0.70;;
36009;SDS011;22076;52.182;5.404;2023-07-20T13:45:29;0.75;;;0.70;;
36009;SDS011;22076;52.182;5.404;2023-07-20T13:47:56;1.10;;;0.70;;
36009;SDS011;22076;52.182;5.404;2023-07-20T13:50:23;1.67;;;0.80;;
36009;SDS011;22076;52.182;5.404;2023-07-20T13:52:51;1.42;;;0.60;;
36009;SDS011;22076;52.182;5.404;2023-07-20T13:55:17;1.13;;;0.70;;
36009;SDS011;22076;52.182;5.404;2023-07-20T13:57:44;1.65;;;0.90;;
36009;SDS011;22076;52.182;5.404;2023-07-20T14:00:11;1.02;;;0.60;;
36009;SDS011;22076;52.182;5.404;2023-07-20T14:02:40;1.25;;;0.90;;
36009;SDS011;22076;52.182;5.404;2023-07-20T14:05:06;0.68;;;0.52;;
36009;SDS011;22076;52.182;5.404;2023-07-20T14:07:34;1.02;;;0.70;;
36009;SDS011;22076;52.182;5.404;2023-07-20T14:10:01;2.20;;;0.77;;
36009;SDS011;22076;52.182;5.404;2023-07-20T14:12:28;1.08;;;0.70;;
36009;SDS011;22076;52.182;5.404;2023-07-20T14:14:54;1.42;;;0.70;;
36009;SDS011;22076;52.182;5.404;2023-07-20T14:17:21;0.95;;;0.80;;
36009;SDS011;22076;52.182;5.404;2023-07-20T14:19:50;0.93;;;0.80;;
36009;SDS011;22076;52.182;5.404;2023-07-20T14:22:17;1.33;;;1.00;;
36009;SDS011;22076;52.182;5.404;2023-07-20T14:24:43;2.45;;;0.80;;
36009;SDS011;22076;52.182;5.404;2023-07-20T14:27:10;0.90;;;0.70;;
36009;SDS011;22076;52.182;5.404;2023-07-20T14:29:37;1.90;;;0.75;;
36009;SDS011;22076;52.182;5.404;2023-07-20T14:32:04;1.48;;;0.70;;
36009;SDS011;22076;52.182;5.404;2023-07-20T14:34:32;3.75;;;0.88;;
36009;SDS011;22076;52.182;5.404;2023-07-20T14:37:01;0.65;;;0.50;;
36009;SDS011;22076;52.182;5.404;2023-07-20T14:39:29;1.98;;;0.75;;
36009;SDS011;22076;52.182;5.404;2023-07-20T14:41:56;0.50;;;0.50;;
36009;SDS011;22076;52.182;5.404;2023-07-20T14:44:22;1.23;;;0.60;;
36009;SDS011;22076;52.182;5.404;2023-07-20T14:46:49;1.38;;;0.50;;
36009;SDS011;22076;52.182;5.404;2023-07-20T14:49:16;2.50;;;0.63;;
36009;SDS011;22076;52.182;5.404;2023-07-20T14:51:43;0.95;;;0.80;;
36009;SDS011;22076;52.182;5.404;2023-07-20T14:54:13;1.20;;;0.60;;